Route Details

Aircraft Information
Group: North America Fleet
Types: B738, B752, B762, B763
Route Data
Distance: 1144nm
Duration: 3h 39m
Origin METAR: KMCI 160053Z 09017G27KT 10SM SCT039 BKN100 OVC150 24/18 A2994 RMK AO2 PK WND 08028/0043 RAB24E41 SLP128 P0000 T02440178
Dest. METAR: KONT 160053Z 24011G17KT 10SM FEW130 FEW200 33/13 A2978 RMK AO2 SLP066 T03330133
Freight Data
(for Aug 16, 2022)
Load Factor:
65%
Manifested Cargo: 38,432lbs
Financial History
Total Freight: 0lbs
Average Load: 0lbs/flt
Fuel Used: 0lbs
Avg. Fuel Used: 0lbs/flt
Fuel Expense: $0
Avg. Fuel Expense: $0
Avg. Fuel Cost: $0/lbs
Total Gross Income: $0
Pilot Pay: $0
Total Expenses: $0
Total Revenue: $0
Average Revenue: $0

Capitol Logistics 462




KMCI
Kansas City International Airport
Kansas City, Missouri
KONT
Ontario International Airport
Ontario, California

Activity Log

Date Flight Route Aircraft Duration
No Flights Yet